WetterOnline ( https://www.wetteronline.de )

Wetter aktuell Schömberg

Aktuelles Wetter: Mühlacker (245m)

6-stündlich | Neueste Meldungen
Ortszeit Temperatur Wetter
Mi, 23.10. 2:00 7.9° C Nebel
Di, 22.10. 20:00 10.2° C Nebel
Di, 22.10. 14:00 13.6° C bedeckt
Di, 22.10. 8:00 10.9° C bewölkt
Di, 22.10. 2:00 12.1° C bedeckt
Mo, 21.10. 20:00 13.1° C Sprühregen
Mo, 21.10. 14:00 16.2° C bedeckt
Mo, 21.10. 8:00 11.7° C wolkig
Ortszeit Temperatur Wetter
Mi, 23.10. 4:30 9.6° C bewölkt
Mi, 23.10. 4:20 9.6° C bewölkt
Mi, 23.10. 4:10 9.6° C wolkig
Mi, 23.10. 4:00 9.5° C wolkig
Mi, 23.10. 3:50 9.5° C wolkig
Mi, 23.10. 3:40 9.3° C Nebel
Mi, 23.10. 3:30 9.1° C Nebel
Mi, 23.10. 3:00 9.0° C Nebel
Mi, 23.10. 2:30 8.7° C Nebel
Mi, 23.10. 2:00 7.9° C Nebel
Mi, 23.10. 1:30 7.9° C Nebel
Ortszeit Relative Feuchte Sichtweite
Mi, 23.10. 2:00 100% 100 m
Di, 22.10. 20:00 100% 0.5 km
Di, 22.10. 14:00 90% 11 km
Di, 22.10. 8:00 100% 5.0 km
Di, 22.10. 2:00 100% 9 km
Mo, 21.10. 20:00 91% 45 km
Mo, 21.10. 14:00 82% 55 km
Mo, 21.10. 8:00 100% 3.7 km
Ortszeit Relative Feuchte Sichtweite
Mi, 23.10. 4:30 100% 3.4 km
Mi, 23.10. 4:20 100% -
Mi, 23.10. 4:10 100% -
Mi, 23.10. 4:00 100% 1.2 km
Mi, 23.10. 3:50 100% -
Mi, 23.10. 3:40 100% -
Mi, 23.10. 3:30 100% 100 m
Mi, 23.10. 3:00 100% 100 m
Mi, 23.10. 2:30 100% 0.2 km
Mi, 23.10. 2:00 100% 100 m
Mi, 23.10. 1:30 100% 100 m
Ortszeit Niederschlagsmenge Niederschlagsart
Mi, 23.10. 2:00 0.0 l/m2 in 6 Std. -
Di, 22.10. 20:00 0.0 l/m2 in 12 Std. -
Di, 22.10. 14:00 0.0 l/m2 in 6 Std. -
Di, 22.10. 8:00 0.5 l/m2 in 12 Std. -
Di, 22.10. 2:00 0.5 l/m2 in 6 Std. Regen
Mo, 21.10. 20:00 0.1 l/m2 in 12 Std. Regen
Mo, 21.10. 14:00 0.1 l/m2 in 6 Std. Regen
Mo, 21.10. 8:00 0.1 l/m2 in 12 Std. Regen
Ortszeit Niederschlagsmenge Niederschlagsart
Mi, 23.10. 4:30 0.0 l/m2 in 1 Std. -
Mi, 23.10. 4:20 keine Meldung -
Mi, 23.10. 4:10 keine Meldung -
Mi, 23.10. 4:00 0.0 l/m2 in 1 Std. -
Mi, 23.10. 3:50 keine Meldung -
Mi, 23.10. 3:40 keine Meldung -
Mi, 23.10. 3:30 0.0 l/m2 in 1 Std. -
Mi, 23.10. 3:00 0.0 l/m2 in 1 Std. -
Mi, 23.10. 2:30 0.0 l/m2 in 1 Std. -
Mi, 23.10. 2:00 0.0 l/m2 in 1 Std. -
Mi, 23.10. 1:30 0.0 l/m2 in 1 Std. -
Ortszeit Stärke Spitze Richtung
km/h Bft. km/h Grad Sektor
Mi, 23.10. 2:00 4 1 7 70° O
Di, 22.10. 20:00 0 0 14 - -
Di, 22.10. 14:00 6 1 13 80° O
Di, 22.10. 8:00 2 1 13 40° NO
Di, 22.10. 2:00 4 1 7 150° SO
Mo, 21.10. 20:00 4 1 22 310° NW
Mo, 21.10. 14:00 9 2 20 300° NW
Mo, 21.10. 8:00 4 1 11 170° S
Ortszeit Stärke Spitze Richtung
km/h Bft. km/h Grad Sektor
Mi, 23.10. 4:30 4 1 7 120° SO
Mi, 23.10. 4:20 4 1 - 120° SO
Mi, 23.10. 4:10 4 1 - 120° SO
Mi, 23.10. 4:00 4 1 7 120° SO
Mi, 23.10. 3:50 4 1 - 120° SO
Mi, 23.10. 3:40 4 1 - 110° O
Mi, 23.10. 3:30 4 1 7 110° O
Mi, 23.10. 3:00 4 1 11 120° SO
Mi, 23.10. 2:30 4 1 11 100° O
Mi, 23.10. 2:00 4 1 7 70° O
Mi, 23.10. 1:30 4 1 7 110° O
Ortszeit Untergrenze Bedeckung Gattung
total tief tief mittel hoch
Mi, 23.10. 2:00 30 m 8/8 8/8 - - -
Di, 22.10. 20:00 - 0/8 0/8 - - -
Di, 22.10. 14:00 240 m 8/8 8/8 - - -
Di, 22.10. 8:00 90 m 7/8 7/8 - - -
Di, 22.10. 2:00 480 m 8/8 8/8 - - -
Mo, 21.10. 20:00 1500 m 7/8 7/8 - - -
Mo, 21.10. 14:00 1800 m 8/8 8/8 - - -
Mo, 21.10. 8:00 1800 m 6/8 3/8 - - -
Ortszeit Bedeckungsgrad in Achtel und Wolkenuntergrenze
Mi, 23.10. 4:30 7(420m)
Mi, 23.10. 4:20 7(420m)
Mi, 23.10. 4:10 6(420m)
Mi, 23.10. 4:00 4(30m) 5(450m)
Mi, 23.10. 3:50 4(30m) 5(450m)
Mi, 23.10. 3:40 7(30m)
Mi, 23.10. 3:30 8(30m)
Mi, 23.10. 3:00 9 9 9
Mi, 23.10. 2:30 8(30m)
Mi, 23.10. 2:00 8(30m) 9 9
Mi, 23.10. 1:30 7(30m) 9 9
Ortszeit Luftdruck NN (hPa) Tendenz (hPa in 3 Std.)
Mi, 23.10. 2:00 1021 - 1,9
Di, 22.10. 20:00 1023 - 0,5
Di, 22.10. 14:00 1025 - 0,2
Di, 22.10. 8:00 1024 + 0,1
Di, 22.10. 2:00 1024 + 0,3
Mo, 21.10. 20:00 1023 + 1,7
Mo, 21.10. 14:00 1020 + 2,0
Mo, 21.10. 8:00 1017 + 1,7
Ortszeit Luftdruck NN (hPa) Tendenz (hPa in 3 Std.)
Mi, 23.10. 4:30 1019 - 2,0
Mi, 23.10. 4:20 1019 keine Meldung
Mi, 23.10. 4:10 1019 keine Meldung
Mi, 23.10. 4:00 1020 - 2,0
Mi, 23.10. 3:50 1020 keine Meldung
Mi, 23.10. 3:40 1020 keine Meldung
Mi, 23.10. 3:30 1020 - 2,2
Mi, 23.10. 3:00 1020 - 2,0
Mi, 23.10. 2:30 1021 - 2,0
Mi, 23.10. 2:00 1021 - 1,9
Mi, 23.10. 1:30 1021 - 1,7
Ortszeit Schneehöhe (cm)
Mi, 23.10. 2:00 0
Di, 22.10. 20:00 0
Di, 22.10. 14:00 0
Di, 22.10. 8:00 0
Di, 22.10. 2:00 0
Mo, 21.10. 20:00 0
Mo, 21.10. 14:00 0
Mo, 21.10. 8:00 0
Ortszeit Schneehöhe (cm)
Mi, 23.10. 4:30 0
Mi, 23.10. 4:20 0
Mi, 23.10. 4:10 0
Mi, 23.10. 4:00 0
Mi, 23.10. 3:50 0
Mi, 23.10. 3:40 0
Mi, 23.10. 3:30 0
Mi, 23.10. 3:00 0
Mi, 23.10. 2:30 0
Mi, 23.10. 2:00 0
Mi, 23.10. 1:30 0
Link zu dieser Seite / Seite empfehlen

Das Wetter in ...